sensor_id;sensor_type;location;lat;lon;timestamp;pressure;altitude;pressure_sealevel;temperature;humidity
38620;BME280;24376;51.986;4.662;2022-10-13T00:01:06;107868.56;;;11.23;100.00
38620;BME280;24376;51.986;4.662;2022-10-13T00:03:31;107887.31;;;11.19;100.00
38620;BME280;24376;51.986;4.662;2022-10-13T00:05:56;107918.06;;;11.20;100.00
38620;BME280;24376;51.986;4.662;2022-10-13T00:08:21;107965.72;;;11.23;100.00
38620;BME280;24376;51.986;4.662;2022-10-13T00:10:48;107979.59;;;11.22;100.00
38620;BME280;24376;51.986;4.662;2022-10-13T00:13:14;108009.63;;;11.24;100.00
38620;BME280;24376;51.986;4.662;2022-10-13T00:15:40;108055.66;;;11.28;100.00
38620;BME280;24376;51.986;4.662;2022-10-13T00:18:06;108082.66;;;11.27;100.00
38620;BME280;24376;51.986;4.662;2022-10-13T00:20:31;108088.41;;;11.24;100.00
38620;BME280;24376;51.986;4.662;2022-10-13T00:22:56;108014.38;;;11.27;100.00
38620;BME280;24376;51.986;4.662;2022-10-13T00:25:22;108070.47;;;11.27;100.00
38620;BME280;24376;51.986;4.662;2022-10-13T00:27:47;108106.06;;;11.25;100.00
38620;BME280;24376;51.986;4.662;2022-10-13T00:30:12;108239.75;;;11.24;100.00
38620;BME280;24376;51.986;4.662;2022-10-13T00:32:37;108278.19;;;11.23;100.00
38620;BME280;24376;51.986;4.662;2022-10-13T00:35:02;108285.66;;;11.20;100.00
38620;BME280;24376;51.986;4.662;2022-10-13T00:37:28;108302.84;;;11.18;100.00
38620;BME280;24376;51.986;4.662;2022-10-13T00:39:53;108327.66;;;11.20;100.00
38620;BME280;24376;51.986;4.662;2022-10-13T00:42:18;108335.22;;;11.24;100.00
38620;BME280;24376;51.986;4.662;2022-10-13T00:47:41;108380.47;;;11.34;100.00
38620;BME280;24376;51.986;4.662;2022-10-13T00:50:10;108407.13;;;11.43;100.00
38620;BME280;24376;51.986;4.662;2022-10-13T00:52:36;108437.31;;;11.52;98.17
38620;BME280;24376;51.986;4.662;2022-10-13T00:55:03;108477.13;;;11.61;94.21
38620;BME280;24376;51.986;4.662;2022-10-13T00:57:30;108460.81;;;11.63;95.44
38620;BME280;24376;51.986;4.662;2022-10-13T00:59:55;108464.66;;;11.65;94.48
38620;BME280;24376;51.986;4.662;2022-10-13T01:02:21;108473.91;;;11.69;94.06
38620;BME280;24376;51.986;4.662;2022-10-13T01:04:46;108456.38;;;11.75;95.26
38620;BME280;24376;51.986;4.662;2022-10-13T01:07:12;108461.84;;;11.77;94.68
38620;BME280;24376;51.986;4.662;2022-10-13T01:09:38;108453.47;;;11.79;95.31
38620;BME280;24376;51.986;4.662;2022-10-13T01:12:25;108448.59;;;11.88;95.93
38620;BME280;24376;51.986;4.662;2022-10-13T01:22:59;108343.81;;;11.96;100.00
38620;BME280;24376;51.986;4.662;2022-10-13T01:25:42;108317.06;;;11.93;100.00
38620;BME280;24376;51.986;4.662;2022-10-13T01:30:41;108408.25;;;12.00;100.00
38620;BME280;24376;51.986;4.662;2022-10-13T01:36:05;108401.09;;;11.99;100.00
38620;BME280;24376;51.986;4.662;2022-10-13T01:38:36;108426.91;;;12.02;100.00
38620;BME280;24376;51.986;4.662;2022-10-13T01:43:32;108430.28;;;12.01;100.00
38620;BME280;24376;51.986;4.662;2022-10-13T01:46:19;108420.78;;;11.95;100.00
38620;BME280;24376;51.986;4.662;2022-10-13T01:48:45;108407.72;;;11.90;100.00
38620;BME280;24376;51.986;4.662;2022-10-13T01:51:15;108440.13;;;11.96;100.00
38620;BME280;24376;51.986;4.662;2022-10-13T01:53:42;108445.59;;;11.97;100.00
38620;BME280;24376;51.986;4.662;2022-10-13T01:56:09;108466.22;;;11.94;100.00
38620;BME280;24376;51.986;4.662;2022-10-13T01:58:35;108471.88;;;11.97;100.00
38620;BME280;24376;51.986;4.662;2022-10-13T02:03:35;108537.41;;;11.96;100.00
38620;BME280;24376;51.986;4.662;2022-10-13T02:06:11;108524.34;;;11.90;100.00
38620;BME280;24376;51.986;4.662;2022-10-13T02:11:12;108586.22;;;11.88;100.00
38620;BME280;24376;51.986;4.662;2022-10-13T02:13:41;108596.31;;;11.85;100.00
38620;BME280;24376;51.986;4.662;2022-10-13T02:16:08;108614.50;;;11.84;97.75
38620;BME280;24376;51.986;4.662;2022-10-13T02:18:34;108668.03;;;11.84;93.49
38620;BME280;24376;51.986;4.662;2022-10-13T02:21:00;108701.47;;;11.85;90.26
38620;BME280;24376;51.986;4.662;2022-10-13T02:23:25;108742.06;;;11.87;88.16
38620;BME280;24376;51.986;4.662;2022-10-13T02:25:50;108766.47;;;11.86;86.90
38620;BME280;24376;51.986;4.662;2022-10-13T02:28:16;108817.56;;;11.88;84.58
38620;BME280;24376;51.986;4.662;2022-10-13T02:30:42;108856.31;;;11.89;81.31
38620;BME280;24376;51.986;4.662;2022-10-13T02:33:07;108854.38;;;11.88;79.59
38620;BME280;24376;51.986;4.662;2022-10-13T02:35:33;108829.13;;;11.83;80.00
38620;BME280;24376;51.986;4.662;2022-10-13T02:37:58;108843.44;;;11.80;78.90
38620;BME280;24376;51.986;4.662;2022-10-13T02:40:24;108859.25;;;11.74;77.53
38620;BME280;24376;51.986;4.662;2022-10-13T02:42:49;108809.56;;;11.70;78.13
38620;BME280;24376;51.986;4.662;2022-10-13T02:45:14;108833.44;;;11.77;76.87
38620;BME280;24376;51.986;4.662;2022-10-13T02:47:40;108946.69;;;11.84;74.96
38620;BME280;24376;51.986;4.662;2022-10-13T02:50:05;108941.66;;;11.86;74.58
38620;BME280;24376;51.986;4.662;2022-10-13T02:52:30;108949.28;;;11.90;74.48
38620;BME280;24376;51.986;4.662;2022-10-13T02:54:55;109042.25;;;11.90;73.71
38620;BME280;24376;51.986;4.662;2022-10-13T02:57:21;109068.53;;;11.90;73.23
38620;BME280;24376;51.986;4.662;2022-10-13T02:59:46;109115.16;;;11.91;72.65
38620;BME280;24376;51.986;4.662;2022-10-13T03:02:11;109135.94;;;11.95;72.27
38620;BME280;24376;51.986;4.662;2022-10-13T03:04:36;109032.91;;;11.92;72.79
38620;BME280;24376;51.986;4.662;2022-10-13T03:07:02;109078.56;;;11.87;71.73
38620;BME280;24376;51.986;4.662;2022-10-13T03:09:27;109100.34;;;11.86;71.40
38620;BME280;24376;51.986;4.662;2022-10-13T03:11:52;109035.84;;;11.77;71.71
38620;BME280;24376;51.986;4.662;2022-10-13T03:14:18;109043.22;;;11.74;71.54
38620;BME280;24376;51.986;4.662;2022-10-13T03:16:43;109074.53;;;11.78;71.21
38620;BME280;24376;51.986;4.662;2022-10-13T03:19:08;109100.59;;;11.82;70.98
38620;BME280;24376;51.986;4.662;2022-10-13T03:21:33;109101.03;;;11.80;70.87
38620;BME280;24376;51.986;4.662;2022-10-13T03:23:58;109086.97;;;11.85;70.52
38620;BME280;24376;51.986;4.662;2022-10-13T03:26:24;109068.06;;;11.87;70.44
38620;BME280;24376;51.986;4.662;2022-10-13T03:28:49;109106.50;;;11.98;70.22
38620;BME280;24376;51.986;4.662;2022-10-13T03:31:15;109139.50;;;12.02;69.91
38620;BME280;24376;51.986;4.662;2022-10-13T03:33:40;109119.41;;;12.02;69.94
38620;BME280;24376;51.986;4.662;2022-10-13T03:36:05;109017.81;;;12.03;70.32
38620;BME280;24376;51.986;4.662;2022-10-13T03:38:32;109028.31;;;12.03;70.09
38620;BME280;24376;51.986;4.662;2022-10-13T03:41:02;109035.50;;;12.04;69.88
38620;BME280;24376;51.986;4.662;2022-10-13T03:43:27;109018.25;;;12.06;69.83
38620;BME280;24376;51.986;4.662;2022-10-13T03:45:56;109038.84;;;12.03;69.57
38620;BME280;24376;51.986;4.662;2022-10-13T03:48:21;109057.50;;;11.98;69.41
38620;BME280;24376;51.986;4.662;2022-10-13T03:50:47;109096.00;;;11.98;69.25
38620;BME280;24376;51.986;4.662;2022-10-13T03:53:12;109149.97;;;12.13;68.97
38620;BME280;24376;51.986;4.662;2022-10-13T03:55:37;109080.13;;;12.15;70.68
38620;BME280;24376;51.986;4.662;2022-10-13T03:58:02;109308.25;;;12.16;68.62
38620;BME280;24376;51.986;4.662;2022-10-13T04:00:27;109255.41;;;12.20;68.43
38620;BME280;24376;51.986;4.662;2022-10-13T04:02:52;109322.84;;;12.19;68.17
38620;BME280;24376;51.986;4.662;2022-10-13T04:05:18;109294.13;;;12.21;68.22
38620;BME280;24376;51.986;4.662;2022-10-13T04:07:43;109294.38;;;12.22;68.11
38620;BME280;24376;51.986;4.662;2022-10-13T04:10:08;109313.28;;;12.20;67.91
38620;BME280;24376;51.986;4.662;2022-10-13T04:12:33;109305.63;;;12.16;67.78
38620;BME280;24376;51.986;4.662;2022-10-13T04:14:58;109387.16;;;12.16;67.73
38620;BME280;24376;51.986;4.662;2022-10-13T04:17:23;109457.75;;;12.24;67.49
38620;BME280;24376;51.986;4.662;2022-10-13T04:19:49;109473.25;;;12.22;67.37
38620;BME280;24376;51.986;4.662;2022-10-13T04:22:14;109516.31;;;12.29;67.23
38620;BME280;24376;51.986;4.662;2022-10-13T04:24:39;109493.13;;;12.26;67.15
38620;BME280;24376;51.986;4.662;2022-10-13T04:27:04;109535.69;;;12.29;67.02
38620;BME280;24376;51.986;4.662;2022-10-13T04:29:29;109617.03;;;12.33;66.84
38620;BME280;24376;51.986;4.662;2022-10-13T04:31:55;109592.63;;;12.34;66.77
38620;BME280;24376;51.986;4.662;2022-10-13T04:34:22;109557.97;;;12.31;66.68
38620;BME280;24376;51.986;4.662;2022-10-13T04:36:50;109561.78;;;12.33;66.61
38620;BME280;24376;51.986;4.662;2022-10-13T04:39:17;109472.31;;;12.33;66.61
38620;BME280;24376;51.986;4.662;2022-10-13T04:41:43;109417.06;;;12.33;66.67
38620;BME280;24376;51.986;4.662;2022-10-13T04:44:08;109390.28;;;12.36;66.52
38620;BME280;24376;51.986;4.662;2022-10-13T04:46:33;109390.50;;;12.37;66.50
38620;BME280;24376;51.986;4.662;2022-10-13T04:48:58;109412.75;;;12.39;66.47
38620;BME280;24376;51.986;4.662;2022-10-13T04:51:24;109420.41;;;12.43;66.43
38620;BME280;24376;51.986;4.662;2022-10-13T04:53:53;109398.41;;;12.43;66.42
38620;BME280;24376;51.986;4.662;2022-10-13T04:56:19;109372.09;;;12.43;66.39
38620;BME280;24376;51.986;4.662;2022-10-13T04:58:44;109356.75;;;12.46;66.41
38620;BME280;24376;51.986;4.662;2022-10-13T05:01:17;109328.28;;;12.49;66.43
38620;BME280;24376;51.986;4.662;2022-10-13T05:03:42;109263.66;;;12.51;66.34
38620;BME280;24376;51.986;4.662;2022-10-13T05:06:14;109305.78;;;12.51;66.30
38620;BME280;24376;51.986;4.662;2022-10-13T05:08:40;109340.94;;;12.51;66.28
38620;BME280;24376;51.986;4.662;2022-10-13T05:11:05;109375.16;;;12.51;66.24
38620;BME280;24376;51.986;4.662;2022-10-13T05:13:30;109412.28;;;12.53;66.21
38620;BME280;24376;51.986;4.662;2022-10-13T05:15:56;109484.03;;;12.63;66.12
38620;BME280;24376;51.986;4.662;2022-10-13T05:18:21;109393.56;;;12.63;66.20
38620;BME280;24376;51.986;4.662;2022-10-13T05:20:46;109481.66;;;12.65;66.15
38620;BME280;24376;51.986;4.662;2022-10-13T05:23:12;109452.94;;;12.66;66.20
38620;BME280;24376;51.986;4.662;2022-10-13T05:25:37;109555.84;;;12.68;66.09
38620;BME280;24376;51.986;4.662;2022-10-13T05:28:03;109644.16;;;12.66;66.06
38620;BME280;24376;51.986;4.662;2022-10-13T05:30:29;109614.25;;;12.65;66.12
38620;BME280;24376;51.986;4.662;2022-10-13T05:32:54;109799.97;;;12.69;66.06
38620;BME280;24376;51.986;4.662;2022-10-13T05:35:19;109986.97;;;12.74;65.98
38620;BME280;24376;51.986;4.662;2022-10-13T05:37:44;109965.66;;;12.73;65.99
38620;BME280;24376;51.986;4.662;2022-10-13T05:40:10;110001.09;;;12.75;65.96
38620;BME280;24376;51.986;4.662;2022-10-13T05:42:35;110025.75;;;12.75;65.95
38620;BME280;24376;51.986;4.662;2022-10-13T05:45:00;109987.25;;;12.76;65.94
38620;BME280;24376;51.986;4.662;2022-10-13T05:47:25;109970.91;;;12.73;65.91
38620;BME280;24376;51.986;4.662;2022-10-13T05:49:52;109962.03;;;12.67;65.92
38620;BME280;24376;51.986;4.662;2022-10-13T05:52:17;109936.41;;;12.66;65.89
38620;BME280;24376;51.986;4.662;2022-10-13T05:54:46;109940.75;;;12.71;65.87
38620;BME280;24376;51.986;4.662;2022-10-13T05:59:42;109905.03;;;12.62;65.85
38620;BME280;24376;51.986;4.662;2022-10-13T06:02:09;109861.72;;;12.60;65.86
38620;BME280;24376;51.986;4.662;2022-10-13T06:04:39;109927.53;;;12.60;65.84
38620;BME280;24376;51.986;4.662;2022-10-13T06:07:05;109948.59;;;12.60;65.82
38620;BME280;24376;51.986;4.662;2022-10-13T06:09:32;109958.19;;;12.65;65.81
38620;BME280;24376;51.986;4.662;2022-10-13T06:11:59;110003.44;;;12.68;65.78
38620;BME280;24376;51.986;4.662;2022-10-13T06:14:24;109943.16;;;12.75;65.81
38620;BME280;24376;51.986;4.662;2022-10-13T06:16:49;109902.47;;;12.73;65.79
38620;BME280;24376;51.986;4.662;2022-10-13T06:19:15;109890.50;;;12.75;65.78
38620;BME280;24376;51.986;4.662;2022-10-13T06:21:40;109897.00;;;12.77;65.77
38620;BME280;24376;51.986;4.662;2022-10-13T06:24:05;109879.50;;;12.77;65.77
38620;BME280;24376;51.986;4.662;2022-10-13T06:26:30;109860.38;;;12.84;65.77
38620;BME280;24376;51.986;4.662;2022-10-13T06:28:55;109847.94;;;12.83;65.76
38620;BME280;24376;51.986;4.662;2022-10-13T06:31:21;109860.91;;;12.87;65.76
38620;BME280;24376;51.986;4.662;2022-10-13T06:33:46;109863.75;;;12.89;65.74
38620;BME280;24376;51.986;4.662;2022-10-13T06:36:11;109888.91;;;12.92;65.74
38620;BME280;24376;51.986;4.662;2022-10-13T06:38:36;109858.97;;;12.92;65.73
38620;BME280;24376;51.986;4.662;2022-10-13T06:41:02;109984.03;;;12.99;65.72
38620;BME280;24376;51.986;4.662;2022-10-13T06:43:28;109924.63;;;13.01;65.73
38620;BME280;24376;51.986;4.662;2022-10-13T06:45:56;109841.78;;;12.99;65.75
38620;BME280;24376;51.986;4.662;2022-10-13T06:48:21;109804.91;;;12.99;65.74
38620;BME280;24376;51.986;4.662;2022-10-13T06:50:46;109989.56;;;13.07;65.72
38620;BME280;24376;51.986;4.662;2022-10-13T06:53:11;109788.16;;;13.04;65.76
38620;BME280;24376;51.986;4.662;2022-10-13T06:55:37;109799.16;;;13.08;65.75
38620;BME280;24376;51.986;4.662;2022-10-13T06:58:02;109688.28;;;13.06;65.76
38620;BME280;24376;51.986;4.662;2022-10-13T07:00:27;109721.06;;;13.08;65.75
38620;BME280;24376;51.986;4.662;2022-10-13T07:02:52;109766.09;;;13.10;65.75
38620;BME280;24376;51.986;4.662;2022-10-13T07:05:17;109718.44;;;13.14;65.76
38620;BME280;24376;51.986;4.662;2022-10-13T07:07:43;109666.94;;;13.16;65.77
38620;BME280;24376;51.986;4.662;2022-10-13T07:10:08;109721.56;;;13.17;65.77
38620;BME280;24376;51.986;4.662;2022-10-13T07:12:33;109723.00;;;13.20;65.77
38620;BME280;24376;51.986;4.662;2022-10-13T07:14:59;109593.19;;;13.21;65.79
38620;BME280;24376;51.986;4.662;2022-10-13T07:17:24;109631.03;;;13.27;65.77
38620;BME280;24376;51.986;4.662;2022-10-13T07:19:49;109599.91;;;13.25;65.78
38620;BME280;24376;51.986;4.662;2022-10-13T07:22:14;109525.88;;;13.29;65.80
38620;BME280;24376;51.986;4.662;2022-10-13T07:24:40;109461.16;;;13.31;65.82
38620;BME280;24376;51.986;4.662;2022-10-13T07:27:05;109418.03;;;13.36;65.82
38620;BME280;24376;51.986;4.662;2022-10-13T07:29:30;109444.34;;;13.42;65.81
38620;BME280;24376;51.986;4.662;2022-10-13T07:31:55;109412.94;;;13.43;65.83
38620;BME280;24376;51.986;4.662;2022-10-13T07:34:20;109331.72;;;13.46;65.85
38620;BME280;24376;51.986;4.662;2022-10-13T07:36:46;109353.25;;;13.49;65.83
38620;BME280;24376;51.986;4.662;2022-10-13T07:39:11;109184.38;;;13.42;65.89
38620;BME280;24376;51.986;4.662;2022-10-13T07:41:37;109258.13;;;13.48;65.85
38620;BME280;24376;51.986;4.662;2022-10-13T07:44:02;109188.53;;;13.58;65.89
38620;BME280;24376;51.986;4.662;2022-10-13T07:46:27;109132.44;;;13.60;65.89
38620;BME280;24376;51.986;4.662;2022-10-13T07:48:53;109110.50;;;13.72;65.91
38620;BME280;24376;51.986;4.662;2022-10-13T07:51:18;109054.56;;;13.80;65.92
38620;BME280;24376;51.986;4.662;2022-10-13T07:53:44;108911.00;;;13.91;65.98
38620;BME280;24376;51.986;4.662;2022-10-13T07:56:10;108713.53;;;13.99;66.06
38620;BME280;24376;51.986;4.662;2022-10-13T07:58:36;108811.44;;;14.08;66.02
38620;BME280;24376;51.986;4.662;2022-10-13T08:01:02;108780.84;;;14.16;66.05
38620;BME280;24376;51.986;4.662;2022-10-13T08:03:28;108674.00;;;14.19;66.10
38620;BME280;24376;51.986;4.662;2022-10-13T08:05:53;108495.72;;;14.01;66.25
38620;BME280;24376;51.986;4.662;2022-10-13T08:08:19;108390.84;;;14.06;66.34
38620;BME280;24376;51.986;4.662;2022-10-13T08:10:44;108331.19;;;13.94;66.49
38620;BME280;24376;51.986;4.662;2022-10-13T08:13:10;108266.06;;;14.00;66.68
38620;BME280;24376;51.986;4.662;2022-10-13T08:15:38;108223.53;;;14.04;66.84
38620;BME280;24376;51.986;4.662;2022-10-13T08:18:04;108077.88;;;14.06;67.34
38620;BME280;24376;51.986;4.662;2022-10-13T08:20:29;108057.88;;;14.01;67.43
38620;BME280;24376;51.986;4.662;2022-10-13T08:22:54;108029.66;;;14.07;67.63
38620;BME280;24376;51.986;4.662;2022-10-13T08:25:19;108010.84;;;14.11;67.82
38620;BME280;24376;51.986;4.662;2022-10-13T08:27:45;107985.56;;;14.14;68.07
38620;BME280;24376;51.986;4.662;2022-10-13T08:30:10;107899.66;;;14.08;68.60
38620;BME280;24376;51.986;4.662;2022-10-13T08:32:35;107791.50;;;14.08;69.14
38620;BME280;24376;51.986;4.662;2022-10-13T08:35:00;107645.16;;;14.05;69.62
38620;BME280;24376;51.986;4.662;2022-10-13T08:37:25;107706.00;;;14.06;69.69
38620;BME280;24376;51.986;4.662;2022-10-13T08:39:53;107686.00;;;14.16;70.15
38620;BME280;24376;51.986;4.662;2022-10-13T08:42:19;107601.03;;;14.18;70.92
38620;BME280;24376;51.986;4.662;2022-10-13T08:45:04;107557.66;;;14.23;71.53
38620;BME280;24376;51.986;4.662;2022-10-13T08:49:55;107520.50;;;14.29;73.10
38620;BME280;24376;51.986;4.662;2022-10-13T08:52:26;107462.81;;;14.32;74.27
38620;BME280;24376;51.986;4.662;2022-10-13T08:54:52;107412.50;;;14.30;76.05
38620;BME280;24376;51.986;4.662;2022-10-13T08:57:18;108311.59;;;14.19;67.88
38620;BME280;24376;51.986;4.662;2022-10-13T08:59:43;108306.88;;;14.16;68.05
38620;BME280;24376;51.986;4.662;2022-10-13T09:02:20;108236.97;;;14.20;68.38
38620;BME280;24376;51.986;4.662;2022-10-13T09:04:46;108207.69;;;14.38;68.58
38620;BME280;24376;51.986;4.662;2022-10-13T09:07:18;108185.56;;;14.57;68.74
38620;BME280;24376;51.986;4.662;2022-10-13T09:09:48;108305.34;;;14.72;68.31
38620;BME280;24376;51.986;4.662;2022-10-13T09:12:13;108249.38;;;14.75;68.55
38620;BME280;24376;51.986;4.662;2022-10-13T09:14:39;108296.16;;;14.83;68.66
38620;BME280;24376;51.986;4.662;2022-10-13T09:17:13;108093.41;;;14.73;69.50
38620;BME280;24376;51.986;4.662;2022-10-13T09:19:38;107859.31;;;14.81;70.64
38620;BME280;24376;51.986;4.662;2022-10-13T09:22:18;107835.88;;;14.98;71.16
38620;BME280;24376;51.986;4.662;2022-10-13T09:24:45;107836.25;;;14.94;71.78
38620;BME280;24376;51.986;4.662;2022-10-13T09:27:11;107805.22;;;15.14;72.45
38620;BME280;24376;51.986;4.662;2022-10-13T09:29:37;107747.16;;;15.30;73.65
38620;BME280;24376;51.986;4.662;2022-10-13T09:34:40;107508.44;;;15.46;80.24
38620;BME280;24376;51.986;4.662;2022-10-13T09:37:10;107399.38;;;15.39;93.65
38620;BME280;24376;51.986;4.662;2022-10-13T09:39:40;107245.88;;;15.29;100.00
38620;BME280;24376;51.986;4.662;2022-10-13T09:42:19;107137.34;;;15.19;100.00
38620;BME280;24376;51.986;4.662;2022-10-13T09:44:45;107076.75;;;15.21;100.00
38620;BME280;24376;51.986;4.662;2022-10-13T09:47:18;107037.97;;;15.37;100.00
38620;BME280;24376;51.986;4.662;2022-10-13T09:49:44;106934.72;;;15.27;100.00
38620;BME280;24376;51.986;4.662;2022-10-13T09:59:38;106645.81;;;15.80;100.00
38620;BME280;24376;51.986;4.662;2022-10-13T10:02:19;106561.47;;;15.91;100.00
38620;BME280;24376;51.986;4.662;2022-10-13T10:04:47;106441.81;;;16.13;100.00
38620;BME280;24376;51.986;4.662;2022-10-13T10:07:18;106341.69;;;16.17;100.00
38620;BME280;24376;51.986;4.662;2022-10-13T10:09:46;106398.97;;;16.17;100.00
38620;BME280;24376;51.986;4.662;2022-10-13T10:12:18;106349.38;;;16.14;100.00
38620;BME280;24376;51.986;4.662;2022-10-13T10:14:44;106288.56;;;16.25;100.00
38620;BME280;24376;51.986;4.662;2022-10-13T10:22:12;106044.06;;;16.53;100.00
38620;BME280;24376;51.986;4.662;2022-10-13T10:27:20;105866.16;;;17.11;100.00
38620;BME280;24376;51.986;4.662;2022-10-13T10:29:51;105705.34;;;17.22;100.00
38620;BME280;24376;51.986;4.662;2022-10-13T10:32:20;105549.28;;;17.25;100.00
38620;BME280;24376;51.986;4.662;2022-10-13T10:37:24;105337.28;;;17.37;100.00
38620;BME280;24376;51.986;4.662;2022-10-13T10:40:00;105237.16;;;17.19;100.00
38620;BME280;24376;51.986;4.662;2022-10-13T10:45:14;105232.50;;;17.28;100.00
38620;BME280;24376;51.986;4.662;2022-10-13T10:47:41;105226.31;;;17.41;100.00
38620;BME280;24376;51.986;4.662;2022-10-13T10:50:07;105170.53;;;17.26;100.00
38620;BME280;24376;51.986;4.662;2022-10-13T10:58:05;105182.88;;;17.26;100.00
38620;BME280;24376;51.986;4.662;2022-10-13T11:00:36;105157.59;;;17.44;100.00
38620;BME280;24376;51.986;4.662;2022-10-13T11:03:07;105134.69;;;17.58;100.00
38620;BME280;24376;51.986;4.662;2022-10-13T11:08:26;105049.47;;;17.52;100.00
38620;BME280;24376;51.986;4.662;2022-10-13T11:19:30;104837.72;;;17.71;100.00
38620;BME280;24376;51.986;4.662;2022-10-13T11:32:17;104756.84;;;17.63;100.00
38620;BME280;24376;51.986;4.662;2022-10-13T11:45:58;104983.66;;;17.32;100.00
38620;BME280;24376;51.986;4.662;2022-10-13T12:00:33;105268.13;;;17.20;100.00
38620;BME280;24376;51.986;4.662;2022-10-13T12:02:59;105283.03;;;17.18;100.00
38620;BME280;24376;51.986;4.662;2022-10-13T12:05:25;105273.78;;;17.00;100.00
38620;BME280;24376;51.986;4.662;2022-10-13T12:07:52;105259.94;;;16.79;100.00
38620;BME280;24376;51.986;4.662;2022-10-13T12:10:20;105284.16;;;16.72;100.00
38620;BME280;24376;51.986;4.662;2022-10-13T12:12:47;105325.34;;;16.57;100.00
38620;BME280;24376;51.986;4.662;2022-10-13T12:17:51;105454.69;;;16.40;100.00
38620;BME280;24376;51.986;4.662;2022-10-13T12:20:23;105569.88;;;16.47;100.00
38620;BME280;24376;51.986;4.662;2022-10-13T12:22:50;105677.13;;;16.32;100.00
38620;BME280;24376;51.986;4.662;2022-10-13T12:25:17;105757.78;;;16.15;100.00
38620;BME280;24376;51.986;4.662;2022-10-13T12:27:46;105893.41;;;16.34;100.00
38620;BME280;24376;51.986;4.662;2022-10-13T12:32:50;106025.59;;;16.02;100.00
38620;BME280;24376;51.986;4.662;2022-10-13T12:35:17;106113.38;;;15.98;100.00
38620;BME280;24376;51.986;4.662;2022-10-13T12:37:43;106214.91;;;15.90;100.00
38620;BME280;24376;51.986;4.662;2022-10-13T12:40:08;106284.47;;;15.99;100.00
38620;BME280;24376;51.986;4.662;2022-10-13T12:42:37;106374.03;;;16.05;100.00
38620;BME280;24376;51.986;4.662;2022-10-13T12:45:03;106418.50;;;16.09;100.00
38620;BME280;24376;51.986;4.662;2022-10-13T12:47:39;106408.53;;;15.96;100.00
38620;BME280;24376;51.986;4.662;2022-10-13T12:53:04;106495.44;;;16.02;100.00
38620;BME280;24376;51.986;4.662;2022-10-13T12:55:34;106543.97;;;16.02;100.00
38620;BME280;24376;51.986;4.662;2022-10-13T12:58:00;106543.28;;;15.86;100.00
38620;BME280;24376;51.986;4.662;2022-10-13T13:00:27;106566.72;;;15.73;100.00
38620;BME280;24376;51.986;4.662;2022-10-13T13:05:32;106628.75;;;15.59;100.00
38620;BME280;24376;51.986;4.662;2022-10-13T13:07:57;106662.38;;;15.60;100.00
38620;BME280;24376;51.986;4.662;2022-10-13T13:10:23;106679.16;;;15.60;100.00
38620;BME280;24376;51.986;4.662;2022-10-13T13:12:48;106695.94;;;15.69;100.00
38620;BME280;24376;51.986;4.662;2022-10-13T13:17:45;106658.66;;;15.66;100.00
38620;BME280;24376;51.986;4.662;2022-10-13T13:20:28;106630.47;;;15.58;100.00
38620;BME280;24376;51.986;4.662;2022-10-13T13:22:53;106640.75;;;15.64;100.00
38620;BME280;24376;51.986;4.662;2022-10-13T13:25:19;106668.56;;;15.69;100.00
38620;BME280;24376;51.986;4.662;2022-10-13T13:27:44;106680.59;;;15.65;100.00
38620;BME280;24376;51.986;4.662;2022-10-13T13:30:13;106671.06;;;15.59;100.00
38620;BME280;24376;51.986;4.662;2022-10-13T13:32:39;106716.16;;;15.60;100.00
38620;BME280;24376;51.986;4.662;2022-10-13T13:35:05;106734.38;;;15.66;100.00
38620;BME280;24376;51.986;4.662;2022-10-13T13:37:34;106754.09;;;15.61;100.00
38620;BME280;24376;51.986;4.662;2022-10-13T13:40:01;106791.28;;;15.62;100.00
38620;BME280;24376;51.986;4.662;2022-10-13T13:42:26;106797.00;;;15.58;100.00
38620;BME280;24376;51.986;4.662;2022-10-13T13:44:52;106807.56;;;15.58;100.00
38620;BME280;24376;51.986;4.662;2022-10-13T13:47:19;106868.56;;;15.68;100.00
38620;BME280;24376;51.986;4.662;2022-10-13T13:49:44;106768.75;;;15.31;100.00
38620;BME280;24376;51.986;4.662;2022-10-13T13:52:10;106833.22;;;15.42;100.00
38620;BME280;24376;51.986;4.662;2022-10-13T13:54:35;106902.72;;;15.58;100.00
38620;BME280;24376;51.986;4.662;2022-10-13T13:57:00;106942.28;;;15.74;100.00
38620;BME280;24376;51.986;4.662;2022-10-13T13:59:26;106933.28;;;15.72;100.00
38620;BME280;24376;51.986;4.662;2022-10-13T14:01:51;106901.53;;;15.72;100.00
38620;BME280;24376;51.986;4.662;2022-10-13T14:04:16;106877.72;;;15.81;100.00
38620;BME280;24376;51.986;4.662;2022-10-13T14:06:41;106850.31;;;16.06;100.00
38620;BME280;24376;51.986;4.662;2022-10-13T14:09:06;106716.22;;;15.96;100.00
38620;BME280;24376;51.986;4.662;2022-10-13T14:11:32;106657.25;;;15.98;100.00
38620;BME280;24376;51.986;4.662;2022-10-13T14:13:57;106578.69;;;15.96;100.00
38620;BME280;24376;51.986;4.662;2022-10-13T14:16:25;106501.78;;;15.85;100.00
38620;BME280;24376;51.986;4.662;2022-10-13T14:18:50;106510.09;;;15.70;100.00
38620;BME280;24376;51.986;4.662;2022-10-13T14:21:16;106515.75;;;15.56;100.00
38620;BME280;24376;51.986;4.662;2022-10-13T14:23:41;106576.22;;;15.53;100.00
38620;BME280;24376;51.986;4.662;2022-10-13T14:26:11;106643.28;;;15.45;100.00
38620;BME280;24376;51.986;4.662;2022-10-13T14:28:36;106686.06;;;15.32;100.00
38620;BME280;24376;51.986;4.662;2022-10-13T14:31:04;106790.19;;;15.17;100.00
38620;BME280;24376;51.986;4.662;2022-10-13T14:33:29;106862.19;;;14.73;100.00
38620;BME280;24376;51.986;4.662;2022-10-13T14:35:59;106980.72;;;14.38;100.00
38620;BME280;24376;51.986;4.662;2022-10-13T14:38:24;107138.91;;;14.14;100.00